createdAt,value
2023-02-22T00:00:52.473Z,6.50
2023-02-22T00:03:24.337Z,7.70
2023-02-22T00:05:57.719Z,6.10
2023-02-22T00:08:29.817Z,7.40
2023-02-22T00:11:08.395Z,6.10
2023-02-22T00:13:36.832Z,6.90
2023-02-22T00:16:03.577Z,6.10
2023-02-22T00:21:00.210Z,5.90
2023-02-22T00:23:29.025Z,7.50
2023-02-22T00:25:57.055Z,6.40
2023-02-22T00:28:23.626Z,6.40
2023-02-22T00:30:50.784Z,6.80
2023-02-22T00:33:17.876Z,6.30
2023-02-22T00:35:47.811Z,7.30
2023-02-22T00:38:16.019Z,6.70
2023-02-22T00:40:42.808Z,6.60
2023-02-22T00:43:09.218Z,7.00
2023-02-22T00:45:38.713Z,7.20
2023-02-22T00:48:06.311Z,6.30
2023-02-22T00:50:33.138Z,6.70
2023-02-22T00:55:30.111Z,6.70
2023-02-22T00:57:57.551Z,7.50
2023-02-22T01:00:32.441Z,7.20
2023-02-22T01:02:59.415Z,6.70
2023-02-22T01:05:29.321Z,7.70
2023-02-22T01:07:57.764Z,7.20
2023-02-22T01:10:27.432Z,7.80
2023-02-22T01:12:53.963Z,8.20
2023-02-22T01:15:23.170Z,8.70
2023-02-22T01:17:52.983Z,8.30
2023-02-22T01:20:22.152Z,8.00
2023-02-22T01:22:50.928Z,7.80
2023-02-22T01:25:21.159Z,7.10
2023-02-22T01:27:49.662Z,7.90
2023-02-22T01:30:21.085Z,8.10
2023-02-22T01:32:48.010Z,8.70
2023-02-22T01:35:17.868Z,8.00
2023-02-22T01:37:45.050Z,9.20
2023-02-22T01:40:18.105Z,8.40
2023-02-22T01:42:44.491Z,8.70
2023-02-22T01:45:29.627Z,8.30
2023-02-22T01:48:02.565Z,7.30
2023-02-22T01:52:55.764Z,7.00
2023-02-22T01:55:22.817Z,7.30
2023-02-22T01:57:49.556Z,7.70
2023-02-22T02:00:20.221Z,6.60
2023-02-22T02:02:50.857Z,8.70
2023-02-22T02:05:17.448Z,7.70
2023-02-22T02:07:46.051Z,7.60
2023-02-22T02:10:14.836Z,8.30
2023-02-22T02:12:47.616Z,7.70
2023-02-22T02:15:24.893Z,7.00
2023-02-22T02:17:54.954Z,7.50
2023-02-22T02:20:29.422Z,7.00
2023-02-22T02:23:27.900Z,8.40
2023-02-22T02:26:27.057Z,8.10
2023-02-22T02:28:56.284Z,7.20
2023-02-22T02:31:48.761Z,8.00
2023-02-22T02:34:43.624Z,7.90
2023-02-22T02:37:10.970Z,8.50
2023-02-22T02:39:46.611Z,8.50
2023-02-22T02:42:18.086Z,8.20
2023-02-22T02:45:01.998Z,7.50
2023-02-22T02:47:34.154Z,9.20
2023-02-22T02:50:06.479Z,8.90
2023-02-22T02:52:34.245Z,9.20
2023-02-22T02:55:03.702Z,8.20
2023-02-22T02:57:30.180Z,9.30
2023-02-22T02:59:56.553Z,8.30
2023-02-22T03:03:06.620Z,8.50
2023-02-22T03:05:46.974Z,9.20
2023-02-22T03:08:20.322Z,8.10
2023-02-22T03:11:06.670Z,8.50
2023-02-22T03:13:57.875Z,8.30
2023-02-22T03:16:52.558Z,7.40
2023-02-22T03:19:25.129Z,8.00
2023-02-22T03:22:19.699Z,7.50
2023-02-22T03:24:58.590Z,8.10
2023-02-22T03:27:33.449Z,10.30
2023-02-22T03:30:11.781Z,8.70
2023-02-22T03:32:41.812Z,8.20
2023-02-22T03:35:30.734Z,6.90
2023-02-22T03:37:59.953Z,7.90
2023-02-22T03:40:33.343Z,8.60
2023-02-22T03:43:14.106Z,8.10
2023-02-22T03:45:43.484Z,7.70
2023-02-22T03:48:22.096Z,8.80
2023-02-22T03:50:51.840Z,7.40
2023-02-22T03:53:19.767Z,8.50
2023-02-22T03:55:50.992Z,8.00
2023-02-22T03:58:18.472Z,7.20
2023-02-22T04:00:45.005Z,8.50
2023-02-22T04:03:11.796Z,7.10
2023-02-22T04:05:38.625Z,9.20
2023-02-22T04:10:33.091Z,8.30
2023-02-22T04:12:59.816Z,8.10
2023-02-22T04:15:26.438Z,9.00
2023-02-22T04:17:53.145Z,7.30
2023-02-22T04:20:20.117Z,7.70
2023-02-22T04:22:47.072Z,7.40
2023-02-22T04:27:39.871Z,6.80
2023-02-22T04:30:06.844Z,7.40
2023-02-22T04:32:33.289Z,6.20
2023-02-22T04:35:01.232Z,6.60
2023-02-22T04:37:27.682Z,7.70
2023-02-22T04:39:54.301Z,8.10
2023-02-22T04:42:21.004Z,7.60
2023-02-22T04:47:14.464Z,8.30
2023-02-22T04:49:41.037Z,9.30
2023-02-22T04:52:07.632Z,8.60
2023-02-22T04:54:34.149Z,8.10
2023-02-22T04:57:00.648Z,7.90
2023-02-22T04:59:27.197Z,8.30
2023-02-22T05:01:53.785Z,7.30
2023-02-22T05:04:21.244Z,8.10
2023-02-22T05:06:48.033Z,8.20
2023-02-22T05:09:14.628Z,8.30
2023-02-22T05:11:41.267Z,7.70
2023-02-22T05:14:07.796Z,8.50
2023-02-22T05:16:35.356Z,7.60
2023-02-22T05:19:02.233Z,7.40
2023-02-22T05:21:28.788Z,7.30
2023-02-22T05:23:55.416Z,7.70
2023-02-22T05:26:22.001Z,9.50
2023-02-22T05:28:48.453Z,9.50
2023-02-22T05:31:15.411Z,9.80
2023-02-22T05:33:42.686Z,8.30
2023-02-22T05:36:09.448Z,9.40
2023-02-22T05:41:10.542Z,10.70
2023-02-22T05:43:38.239Z,9.50
2023-02-22T05:46:04.956Z,7.70
2023-02-22T05:48:31.597Z,8.50
2023-02-22T05:50:58.013Z,11.30
2023-02-22T05:53:24.417Z,10.80
2023-02-22T05:55:51.298Z,10.50
2023-02-22T05:58:18.037Z,10.60
2023-02-22T06:00:44.657Z,9.00
2023-02-22T06:03:12.340Z,7.70
2023-02-22T06:05:39.328Z,14.40
2023-02-22T06:08:06.637Z,19.00
2023-02-22T06:10:33.247Z,21.20
2023-02-22T06:13:00.721Z,16.00
2023-02-22T06:15:27.985Z,13.80
2023-02-22T06:17:55.555Z,12.20
2023-02-22T06:20:23.144Z,11.30
2023-02-22T06:22:51.528Z,12.30
2023-02-22T06:25:20.646Z,12.80
2023-02-22T06:27:47.543Z,11.90
2023-02-22T06:30:15.599Z,12.70
2023-02-22T06:32:42.106Z,12.00
2023-02-22T06:35:08.932Z,12.20
2023-02-22T06:40:05.479Z,12.40
2023-02-22T06:42:33.123Z,13.70
2023-02-22T06:44:59.703Z,12.90
2023-02-22T06:47:26.424Z,12.90
2023-02-22T06:49:56.748Z,10.50
2023-02-22T06:52:23.594Z,10.30
2023-02-22T06:57:16.920Z,8.40
2023-02-22T06:59:43.574Z,10.90
2023-02-22T07:02:11.923Z,10.70
2023-02-22T07:04:41.011Z,10.20
2023-02-22T07:07:08.965Z,9.20
2023-02-22T07:09:35.663Z,10.70
2023-02-22T07:14:28.477Z,11.90
2023-02-22T07:16:54.911Z,11.90
2023-02-22T07:19:21.621Z,10.50
2023-02-22T07:21:48.194Z,12.10
2023-02-22T07:24:14.566Z,11.10
2023-02-22T07:26:41.841Z,11.80
2023-02-22T07:29:08.321Z,11.30
2023-02-22T07:31:36.038Z,15.20
2023-02-22T07:34:02.630Z,15.80
2023-02-22T07:36:29.131Z,16.90
2023-02-22T07:38:55.928Z,15.80
2023-02-22T07:41:22.486Z,12.50
2023-02-22T07:43:49.042Z,11.50
2023-02-22T07:46:15.632Z,11.40
2023-02-22T07:51:09.476Z,10.50
2023-02-22T07:53:36.090Z,11.30
2023-02-22T07:56:04.684Z,13.20
2023-02-22T07:58:32.855Z,10.00
2023-02-22T08:01:03.329Z,10.20
2023-02-22T08:03:37.296Z,10.70
2023-02-22T08:06:07.088Z,11.80
2023-02-22T08:08:35.866Z,9.30
2023-02-22T08:11:02.912Z,9.70
2023-02-22T08:16:00.614Z,7.50
2023-02-22T08:18:27.178Z,8.00
2023-02-22T08:20:54.571Z,8.00
2023-02-22T08:23:24.640Z,7.10
2023-02-22T08:25:51.352Z,6.30
2023-02-22T08:30:46.220Z,6.80
2023-02-22T08:33:16.148Z,8.60
2023-02-22T08:35:42.834Z,6.30
2023-02-22T08:40:42.012Z,6.40
2023-02-22T08:45:36.322Z,5.40
2023-02-22T08:48:03.257Z,6.00
2023-02-22T08:50:35.288Z,6.00
2023-02-22T08:53:04.151Z,7.10
2023-02-22T08:55:34.082Z,6.90
2023-02-22T08:58:02.633Z,8.20
2023-02-22T09:00:34.965Z,7.40
2023-02-22T09:03:02.947Z,5.90
2023-02-22T09:05:31.658Z,6.20
2023-02-22T09:07:59.561Z,5.60
2023-02-22T09:10:30.276Z,6.60
2023-02-22T09:12:57.725Z,6.20
2023-02-22T09:15:25.518Z,5.40
2023-02-22T09:17:53.168Z,6.90
2023-02-22T09:20:22.204Z,5.50
2023-02-22T09:22:49.332Z,5.40
2023-02-22T09:25:17.708Z,5.50
2023-02-22T09:27:47.505Z,6.20
2023-02-22T09:30:20.061Z,6.90
2023-02-22T09:35:14.206Z,6.20
2023-02-22T09:37:44.438Z,7.10
2023-02-22T09:40:24.284Z,5.80
2023-02-22T09:43:11.447Z,6.50
2023-02-22T09:46:03.210Z,5.70
2023-02-22T09:48:32.728Z,5.80
2023-02-22T09:51:00.946Z,4.70
2023-02-22T09:53:35.740Z,6.00
2023-02-22T09:56:10.602Z,5.70
2023-02-22T09:58:42.649Z,6.00
2023-02-22T10:01:28.686Z,5.10
2023-02-22T10:04:04.417Z,6.20
2023-02-22T10:06:33.167Z,5.30
2023-02-22T10:09:01.092Z,4.50
2023-02-22T10:11:40.392Z,6.30
2023-02-22T10:14:25.332Z,5.00
2023-02-22T10:17:11.277Z,4.90
2023-02-22T10:20:05.719Z,4.30
2023-02-22T10:22:46.538Z,5.70
2023-02-22T10:25:22.395Z,5.40
2023-02-22T10:28:04.396Z,5.00
2023-02-22T10:30:56.217Z,5.30
2023-02-22T10:33:27.126Z,4.90
2023-02-22T10:35:55.219Z,4.70
2023-02-22T10:38:24.721Z,3.70
2023-02-22T10:41:09.592Z,5.50
2023-02-22T10:43:43.140Z,4.40
2023-02-22T10:46:17.741Z,3.90
2023-02-22T10:48:48.192Z,4.50
2023-02-22T10:51:14.713Z,5.30
2023-02-22T10:53:41.443Z,6.20
2023-02-22T10:56:09.756Z,4.20
2023-02-22T10:58:54.969Z,5.20
2023-02-22T11:01:30.299Z,4.80
2023-02-22T11:04:27.478Z,4.60
2023-02-22T11:07:07.314Z,4.70
2023-02-22T11:09:54.830Z,5.20
2023-02-22T11:12:31.500Z,5.30
2023-02-22T11:15:21.846Z,5.20
2023-02-22T11:17:51.262Z,4.70
2023-02-22T11:20:34.178Z,4.70
2023-02-22T11:23:04.802Z,4.70
2023-02-22T11:25:34.777Z,6.50
2023-02-22T11:28:15.469Z,4.80
2023-02-22T11:30:51.064Z,4.60
2023-02-22T11:33:26.344Z,5.60
2023-02-22T11:36:04.372Z,5.00
2023-02-22T11:38:33.666Z,4.90
2023-02-22T11:41:17.483Z,4.70
2023-02-22T11:43:46.926Z,4.30
2023-02-22T11:46:17.350Z,4.90
2023-02-22T11:49:06.182Z,5.20
2023-02-22T11:51:41.959Z,5.90
2023-02-22T11:54:28.169Z,4.80
2023-02-22T11:57:27.547Z,4.90
2023-02-22T11:59:55.128Z,4.60
2023-02-22T12:02:48.781Z,5.00
2023-02-22T12:05:36.678Z,4.90
2023-02-22T12:08:19.272Z,4.40
2023-02-22T12:11:03.060Z,5.00
2023-02-22T12:13:51.514Z,4.90
2023-02-22T12:16:34.915Z,4.00
2023-02-22T12:19:21.551Z,4.40
2023-02-22T12:21:53.798Z,3.60
2023-02-22T12:24:25.199Z,4.80
2023-02-22T12:27:01.079Z,4.00
2023-02-22T12:29:37.070Z,3.80
2023-02-22T12:32:09.536Z,4.20
2023-02-22T12:34:50.191Z,3.90
2023-02-22T12:37:56.066Z,3.90
2023-02-22T12:40:44.632Z,3.20
2023-02-22T12:43:21.956Z,4.20
2023-02-22T12:46:03.909Z,3.60
2023-02-22T12:48:35.370Z,3.90
2023-02-22T12:51:14.639Z,3.40
2023-02-22T12:53:46.128Z,3.50
2023-02-22T12:56:33.391Z,4.20
2023-02-22T12:59:25.633Z,4.00
2023-02-22T13:02:16.453Z,4.40
2023-02-22T13:04:43.674Z,3.70
2023-02-22T13:07:13.229Z,4.30
2023-02-22T13:10:03.572Z,4.00
2023-02-22T13:12:51.985Z,5.10
2023-02-22T13:15:40.982Z,3.90
2023-02-22T13:18:38.504Z,4.80
2023-02-22T13:21:41.723Z,4.20
2023-02-22T13:24:22.909Z,4.20
2023-02-22T13:27:12.347Z,4.20
2023-02-22T13:29:42.298Z,3.70
2023-02-22T13:32:30.225Z,4.80
2023-02-22T13:35:01.649Z,4.70
2023-02-22T13:38:00.761Z,4.70
2023-02-22T13:41:04.642Z,4.90
2023-02-22T13:43:37.650Z,3.90
2023-02-22T13:46:42.360Z,3.80
2023-02-22T13:49:29.935Z,4.70
2023-02-22T13:52:14.598Z,4.40
2023-02-22T13:54:46.040Z,4.30
2023-02-22T13:57:38.781Z,4.40
2023-02-22T14:00:14.735Z,5.30
2023-02-22T14:03:12.569Z,7.60
2023-02-22T14:05:41.157Z,46.20
2023-02-22T14:08:16.791Z,32.40
2023-02-22T14:10:50.441Z,33.20
2023-02-22T14:13:18.894Z,11.30
2023-02-22T14:16:04.195Z,9.20
2023-02-22T14:19:23.043Z,6.20
2023-02-22T14:22:05.140Z,8.40
2023-02-22T14:24:46.684Z,7.30
2023-02-22T14:27:14.157Z,15.20
2023-02-22T14:29:55.913Z,5.00
2023-02-22T14:32:31.319Z,6.70
2023-02-22T14:35:00.613Z,6.10
2023-02-22T14:37:32.376Z,5.50
2023-02-22T14:40:18.052Z,5.10
2023-02-22T14:42:50.226Z,6.20
2023-02-22T14:45:30.058Z,6.40
2023-02-22T14:48:13.034Z,5.50
2023-02-22T14:50:39.737Z,6.30
2023-02-22T14:53:28.397Z,4.40
2023-02-22T14:56:01.954Z,4.60
2023-02-22T14:58:51.877Z,5.20
2023-02-22T15:01:19.646Z,4.80
2023-02-22T15:03:56.004Z,4.20
2023-02-22T15:06:30.729Z,4.90
2023-02-22T15:09:12.095Z,4.10
2023-02-22T15:11:38.954Z,4.70
2023-02-22T15:14:26.564Z,8.30
2023-02-22T15:16:56.462Z,11.50
2023-02-22T15:19:33.939Z,8.60
2023-02-22T15:22:01.674Z,4.80
2023-02-22T15:24:30.731Z,5.10
2023-02-22T15:27:07.026Z,5.00
2023-02-22T15:29:39.594Z,5.00
2023-02-22T15:32:29.128Z,6.00
2023-02-22T15:35:25.621Z,5.10
2023-02-22T15:38:08.770Z,5.40
2023-02-22T15:40:42.334Z,4.60
2023-02-22T15:43:18.171Z,3.80
2023-02-22T15:45:45.552Z,7.20
2023-02-22T15:48:14.050Z,6.00
2023-02-22T15:51:03.804Z,5.40
2023-02-22T15:53:39.390Z,5.00
2023-02-22T15:56:10.341Z,4.00
2023-02-22T15:58:38.464Z,4.90
2023-02-22T16:01:13.763Z,4.50
2023-02-22T16:03:53.972Z,4.00
2023-02-22T16:06:32.969Z,4.60
2023-02-22T16:09:02.015Z,4.90
2023-02-22T16:11:43.420Z,5.10
2023-02-22T16:14:26.422Z,4.90
2023-02-22T16:17:35.053Z,6.00
2023-02-22T16:20:21.529Z,4.90
2023-02-22T16:22:49.537Z,4.00
2023-02-22T16:25:20.829Z,4.80
2023-02-22T16:27:58.014Z,4.40
2023-02-22T16:30:34.309Z,7.00
2023-02-22T16:33:15.994Z,5.40
2023-02-22T16:35:51.173Z,6.30
2023-02-22T16:38:18.362Z,4.80
2023-02-22T16:40:55.564Z,7.00
2023-02-22T16:43:24.630Z,8.00
2023-02-22T16:45:52.322Z,7.20
2023-02-22T16:48:23.976Z,6.80
2023-02-22T16:50:55.396Z,6.70
2023-02-22T16:53:24.217Z,6.20
2023-02-22T16:55:57.039Z,7.80
2023-02-22T16:58:27.323Z,6.60
2023-02-22T17:00:56.629Z,8.20
2023-02-22T17:03:23.697Z,7.90
2023-02-22T17:05:50.772Z,6.30
2023-02-22T17:08:17.329Z,7.80
2023-02-22T17:10:45.732Z,8.10
2023-02-22T17:13:22.397Z,8.00
2023-02-22T17:15:49.806Z,12.60
2023-02-22T17:18:22.106Z,11.70
2023-02-22T17:20:52.390Z,10.50
2023-02-22T17:23:20.361Z,12.40
2023-02-22T17:25:55.432Z,8.90
2023-02-22T17:28:23.792Z,6.70
2023-02-22T17:30:51.509Z,7.60
2023-02-22T17:33:22.115Z,6.80
2023-02-22T17:35:49.090Z,12.30
2023-02-22T17:40:54.196Z,15.20
2023-02-22T17:43:21.276Z,8.80
2023-02-22T17:45:47.951Z,11.80
2023-02-22T17:50:43.103Z,20.20
2023-02-22T17:53:12.943Z,19.20
2023-02-22T17:55:41.807Z,24.70
2023-02-22T17:58:13.815Z,33.10
2023-02-22T18:00:43.538Z,19.60
2023-02-22T18:03:13.058Z,9.20
2023-02-22T18:05:43.466Z,12.90
2023-02-22T18:08:10.337Z,10.70
2023-02-22T18:10:37.171Z,9.10
2023-02-22T18:13:04.165Z,13.10
2023-02-22T18:15:35.076Z,8.70
2023-02-22T18:18:04.616Z,7.70
2023-02-22T18:20:37.632Z,7.20
2023-02-22T18:23:08.318Z,7.10
2023-02-22T18:25:36.043Z,8.80
2023-02-22T18:28:05.549Z,8.10
2023-02-22T18:30:35.271Z,10.90
2023-02-22T18:33:03.204Z,9.90
2023-02-22T18:35:30.681Z,10.30
2023-02-22T18:37:57.351Z,10.20
2023-02-22T18:40:24.020Z,11.00
2023-02-22T18:42:50.568Z,11.70
2023-02-22T18:45:17.687Z,9.80
2023-02-22T18:47:44.996Z,11.40
2023-02-22T18:50:12.478Z,11.90
2023-02-22T18:52:45.752Z,11.20
2023-02-22T18:55:18.351Z,13.80
2023-02-22T18:57:45.614Z,15.10
2023-02-22T19:00:15.408Z,11.30
2023-02-22T19:02:42.933Z,14.60
2023-02-22T19:05:16.755Z,19.80
2023-02-22T19:07:44.754Z,14.40
2023-02-22T19:10:11.577Z,14.70
2023-02-22T19:15:05.103Z,19.70
2023-02-22T19:17:35.800Z,12.80
2023-02-22T19:20:07.144Z,14.20
2023-02-22T19:22:34.374Z,11.60
2023-02-22T19:25:01.707Z,12.90
2023-02-22T19:27:33.443Z,12.50
2023-02-22T19:30:00.008Z,12.60
2023-02-22T19:32:26.802Z,13.10
2023-02-22T19:37:33.517Z,11.80
2023-02-22T19:40:01.904Z,12.10
2023-02-22T19:42:29.154Z,12.10
2023-02-22T19:44:55.598Z,11.30
2023-02-22T19:47:22.317Z,13.20
2023-02-22T19:49:49.639Z,12.00
2023-02-22T19:52:16.616Z,12.80
2023-02-22T19:57:11.178Z,11.20
2023-02-22T19:59:38.464Z,11.60
2023-02-22T20:02:05.230Z,11.80
2023-02-22T20:06:58.552Z,10.20
2023-02-22T20:09:29.262Z,12.00
2023-02-22T20:11:56.481Z,11.90
2023-02-22T20:14:25.432Z,12.20
2023-02-22T20:16:53.163Z,11.90
2023-02-22T20:19:22.135Z,10.20
2023-02-22T20:21:49.449Z,13.50
2023-02-22T20:24:17.801Z,11.80
2023-02-22T20:26:44.832Z,11.60
2023-02-22T20:29:12.199Z,11.80
2023-02-22T20:31:41.007Z,10.70
2023-02-22T20:34:09.685Z,12.00
2023-02-22T20:36:40.889Z,13.20
2023-02-22T20:39:12.734Z,10.50
2023-02-22T20:41:41.699Z,11.30
2023-02-22T20:44:11.299Z,11.60
2023-02-22T20:46:37.993Z,11.90
2023-02-22T20:49:07.713Z,12.20
2023-02-22T20:51:34.793Z,11.70
2023-02-22T20:54:01.986Z,12.40
2023-02-22T20:56:31.269Z,10.70
2023-02-22T20:58:59.831Z,12.40
2023-02-22T21:01:26.914Z,11.60
2023-02-22T21:03:53.913Z,11.80
2023-02-22T21:06:21.931Z,10.90
2023-02-22T21:08:54.259Z,11.10
2023-02-22T21:11:22.465Z,11.70
2023-02-22T21:13:50.449Z,12.70
2023-02-22T21:16:26.157Z,12.80
2023-02-22T21:18:54.150Z,12.50
2023-02-22T21:21:22.015Z,12.00
2023-02-22T21:23:50.684Z,12.10
2023-02-22T21:26:23.228Z,11.40
2023-02-22T21:28:54.409Z,12.50
2023-02-22T21:31:23.996Z,11.90
2023-02-22T21:33:52.693Z,11.50
2023-02-22T21:36:24.625Z,11.20
2023-02-22T21:38:56.606Z,12.40
2023-02-22T21:41:27.140Z,11.30
2023-02-22T21:43:55.066Z,10.90
2023-02-22T21:46:22.909Z,10.20
2023-02-22T21:48:50.029Z,10.80
2023-02-22T21:53:51.681Z,11.40
2023-02-22T21:56:23.514Z,11.00
2023-02-22T21:59:00.708Z,11.50
2023-02-22T22:01:28.949Z,10.60
2023-02-22T22:03:58.875Z,12.10
2023-02-22T22:06:29.870Z,10.00
2023-02-22T22:08:57.830Z,11.50
2023-02-22T22:11:24.968Z,11.30
2023-02-22T22:13:59.010Z,11.40
2023-02-22T22:16:29.623Z,12.00
2023-02-22T22:18:56.790Z,11.60
2023-02-22T22:21:24.543Z,10.70
2023-02-22T22:23:56.565Z,12.10
2023-02-22T22:26:24.184Z,11.50
2023-02-22T22:28:58.043Z,11.40
2023-02-22T22:31:26.351Z,11.40
2023-02-22T22:33:54.787Z,10.60
2023-02-22T22:36:22.523Z,12.40
2023-02-22T22:38:52.298Z,12.20
2023-02-22T22:41:21.545Z,10.80
2023-02-22T22:43:48.872Z,12.90
2023-02-22T22:46:17.278Z,12.70
2023-02-22T22:48:46.328Z,14.20
2023-02-22T22:51:17.624Z,14.00
2023-02-22T22:53:46.085Z,11.80
2023-02-22T22:56:20.629Z,13.30
2023-02-22T22:58:49.769Z,12.50
2023-02-22T23:01:19.352Z,11.90
2023-02-22T23:03:54.199Z,12.50
2023-02-22T23:06:30.255Z,13.10
2023-02-22T23:08:59.328Z,13.10
2023-02-22T23:11:28.217Z,13.70
2023-02-22T23:13:55.901Z,13.40
2023-02-22T23:16:24.003Z,13.10
2023-02-22T23:18:50.780Z,14.00
2023-02-22T23:21:19.197Z,12.90
2023-02-22T23:23:50.857Z,14.70
2023-02-22T23:26:17.634Z,14.00
2023-02-22T23:28:47.129Z,15.60
2023-02-22T23:31:16.539Z,13.30
2023-02-22T23:33:44.765Z,14.00
2023-02-22T23:36:11.907Z,16.20
2023-02-22T23:38:41.437Z,15.60
2023-02-22T23:41:10.615Z,14.20
2023-02-22T23:43:41.371Z,16.80
2023-02-22T23:46:11.514Z,13.30
2023-02-22T23:48:40.144Z,13.80
2023-02-22T23:51:10.444Z,13.70
2023-02-22T23:53:38.582Z,13.10
2023-02-22T23:56:09.349Z,14.80
2023-02-22T23:58:37.436Z,13.40
